首页
METAR-TAF:

METAR-TAF

机场 :

乌塔保国际机场

芭達亞-Rayong, 泰国

纬度: 12-38N, 经度: 101-21E, 海拔: 3米

当前天气观测

该预报发布于41分钟前的02:00 UTC
风速12节,风向
温度 29°C
湿度 58%
气压 1014 hPa
能見度: 6000
少量云层高于2000英尺

METAR: VTBU 170200Z 17012KT 6000 FEW020 29/20 Q1014 NOSIG

时间: 09:41 (02:41 UTC)

预报

该预报发布于3小时和41分钟前的23:00 UTC
预报有效从17日的 00点(UTC)到 17日的 24点(UTC)
风速12节,风向
能見度: 8000
少量云层高于2000英尺
短暂存在
从 17日的 06点(UTC)到 17日的 11点(UTC)
少量云层高于2000英尺, 积雨云.
成为
从 17日的 11点(UTC)到 17日的 13点(UTC)
风速8节,风向
能見度: 6000

TAF: VTBU 162300Z 1700/1724 18012KT 8000 FEW020 TEMPO 1706/1711 FEW020CB BECMG 1711/1713 19008KT 6000

超过4000个机场的气象观测和天气预报(METAR&TAF报告)。

可查询的气象台以黄色和红色小点在地图上表示。

将鼠标移到小点上方,可查看气象台名称。

然后点击查看天气观测和预报。

如需切换地图:点击带黑十字的绿色按钮放大地图;点击带横线的绿色按钮缩小地图;或者点击绿色箭头查看邻近地区的地图。


METAR-TAF: